Time;durP1;ratioP1;P1;durP2;ratioP2;P2;SDS_P1;SDS_P2;PMS_P1;PMS_P2;Temp;Humidity;BMP_temperature;BMP_pressure;BME280_temperature;BME280_humidity;BME280_pressure;Samples;Min_cycle;Max_cycle;Signal;HPM_P1;HPM_P2
2022/10/03 00:01:17;;;;;;;7.22;4.90;;;;;;;;;;5105704;28;20267;-71
2022/10/03 00:03:54;;;;;;;8.52;4.70;;;;;;;;;;5106173;28;20043;-70
2022/10/03 00:06:21;;;;;;;7.22;4.78;;;;;;;;;;5105593;28;20043;-71
2022/10/03 00:08:49;;;;;;;6.47;3.70;;;;;;;;;;5105027;28;20044;-71
2022/10/03 00:11:34;;;;;;;8.20;5.15;;;;;;;;;;5105751;28;20043;-71
2022/10/03 00:14:05;;;;;;;3.15;2.50;;;;;;;;;;5106252;28;20050;-71
2022/10/03 00:16:44;;;;;;;5.40;4.10;;;;;;;;;;5106165;28;20074;-72
2022/10/03 00:19:19;;;;;;;11.07;5.13;;;;;;;;;;5109837;28;20233;-71
2022/10/03 00:22:00;;;;;;;10.20;5.10;;;;;;;;;;5110209;28;20518;-72
2022/10/03 00:24:46;;;;;;;8.32;4.40;;;;;;;;;;5109947;28;20046;-72
2022/10/03 00:27:26;;;;;;;9.15;4.80;;;;;;;;;;5109978;28;20075;-72
2022/10/03 00:30:02;;;;;;;12.05;5.13;;;;;;;;;;5108714;28;20063;-71
2022/10/03 00:32:51;;;;;;;11.85;5.60;;;;;;;;;;5110223;28;20081;-72
2022/10/03 00:35:38;;;;;;;14.68;5.60;;;;;;;;;;5109666;28;20078;-72
2022/10/03 00:38:05;;;;;;;8.25;4.45;;;;;;;;;;5108679;28;20048;-71
2022/10/03 00:40:54;;;;;;;9.75;4.43;;;;;;;;;;5102188;28;20051;-71
2022/10/03 00:43:42;;;;;;;4.35;3.78;;;;;;;;;;5117880;27;20075;-72
2022/10/03 00:46:25;;;;;;;9.85;5.70;;;;;;;;;;5104446;27;20609;-71
2022/10/03 00:49:23;;;;;;;8.70;4.47;;;;;;;;;;5104382;28;20051;-72
2022/10/03 00:52:11;;;;;;;9.68;5.30;;;;;;;;;;5094015;27;20526;-72
2022/10/03 00:54:51;;;;;;;9.23;6.22;;;;;;;;;;5066328;28;20125;-72
2022/10/03 00:57:21;;;;;;;10.40;5.97;;;;;;;;;;5102956;28;20078;-72
2022/10/03 01:00:12;;;;;;;9.85;6.05;;;;;;;;;;5108669;28;20071;-72
2022/10/03 01:02:43;;;;;;;8.80;5.50;;;;;;;;;;5092822;28;20139;-72
2022/10/03 01:05:29;;;;;;;10.80;6.30;;;;;;;;;;5102358;28;20059;-71
2022/10/03 01:08:16;;;;;;;10.80;5.47;;;;;;;;;;5101763;28;20047;-72
2022/10/03 01:10:43;;;;;;;8.07;5.72;;;;;;;;;;5107021;28;20035;-71
2022/10/03 01:13:14;;;;;;;7.80;4.63;;;;;;;;;;5111575;27;20131;-71
2022/10/03 01:15:48;;;;;;;8.45;4.95;;;;;;;;;;5105651;28;20040;-71
2022/10/03 01:18:19;;;;;;;5.10;3.53;;;;;;;;;;5107041;28;20089;-71
2022/10/03 01:20:52;;;;;;;8.93;5.57;;;;;;;;;;5106176;28;20039;-71
2022/10/03 01:23:37;;;;;;;9.57;6.13;;;;;;;;;;5103938;28;20306;-72
2022/10/03 01:26:24;;;;;;;11.50;7.03;;;;;;;;;;5107674;28;20105;-72
2022/10/03 01:32:15;;;;;;;10.73;6.45;;;;;;;;;;5106562;28;20120;-72
2022/10/03 01:34:54;;;;;;;13.82;6.43;;;;;;;;;;5099147;28;20101;-70
2022/10/03 01:37:28;;;;;;;13.85;6.15;;;;;;;;;;5099844;28;20036;-72
2022/10/03 01:40:12;;;;;;;9.60;5.88;;;;;;;;;;5104469;28;20403;-72
2022/10/03 01:43:00;;;;;;;13.07;7.72;;;;;;;;;;5087990;28;20052;-72
2022/10/03 01:45:46;;;;;;;14.18;7.82;;;;;;;;;;5096949;28;20096;-72
2022/10/03 01:48:26;;;;;;;11.63;6.35;;;;;;;;;;5107574;28;20430;-72
2022/10/03 01:51:12;;;;;;;16.35;8.18;;;;;;;;;;5104945;28;20060;-72
2022/10/03 01:53:49;;;;;;;17.83;7.80;;;;;;;;;;5108096;28;20139;-72
2022/10/03 01:56:39;;;;;;;12.20;6.28;;;;;;;;;;5105421;28;20138;-70
2022/10/03 01:59:22;;;;;;;14.48;7.72;;;;;;;;;;5103237;28;20067;-72
2022/10/03 02:01:52;;;;;;;11.55;7.15;;;;;;;;;;5107623;28;20040;-71
2022/10/03 02:04:22;;;;;;;11.98;8.02;;;;;;;;;;5107166;28;20063;-72
2022/10/03 02:06:53;;;;;;;11.05;5.95;;;;;;;;;;5105320;28;20046;-70
2022/10/03 02:09:32;;;;;;;13.27;7.10;;;;;;;;;;5107769;28;20052;-72
2022/10/03 02:12:03;;;;;;;10.80;5.72;;;;;;;;;;5105354;28;20104;-72
2022/10/03 02:14:45;;;;;;;17.17;8.15;;;;;;;;;;5103508;28;20044;-72
2022/10/03 02:17:29;;;;;;;12.27;7.22;;;;;;;;;;5092415;28;20048;-72
2022/10/03 02:20:01;;;;;;;10.50;5.18;;;;;;;;;;5086671;28;20044;-72
2022/10/03 02:22:42;;;;;;;11.35;6.82;;;;;;;;;;5105967;28;20433;-72
2022/10/03 02:25:21;;;;;;;16.30;8.68;;;;;;;;;;5106780;28;20040;-72
2022/10/03 02:27:54;;;;;;;14.15;7.38;;;;;;;;;;5104813;28;20495;-72
2022/10/03 02:30:31;;;;;;;13.20;7.95;;;;;;;;;;5104532;28;20040;-72
2022/10/03 02:33:05;;;;;;;15.75;8.68;;;;;;;;;;5114075;27;20051;-72
2022/10/03 02:35:35;;;;;;;11.65;6.05;;;;;;;;;;5106487;27;20047;-72
2022/10/03 02:38:16;;;;;;;12.32;7.22;;;;;;;;;;5106293;28;20100;-71
2022/10/03 02:40:55;;;;;;;13.80;8.32;;;;;;;;;;5106467;28;20085;-71
2022/10/03 02:43:42;;;;;;;13.88;7.18;;;;;;;;;;5105896;28;20526;-72
2022/10/03 02:46:35;;;;;;;5.28;3.65;;;;;;;;;;5102043;28;20168;-70
2022/10/03 02:49:02;;;;;;;14.73;8.13;;;;;;;;;;5083834;27;20070;-72
2022/10/03 02:51:45;;;;;;;13.68;7.82;;;;;;;;;;5114960;27;20039;-72
2022/10/03 02:54:29;;;;;;;12.23;7.35;;;;;;;;;;5106697;28;20086;-72
2022/10/03 02:57:03;;;;;;;9.93;5.22;;;;;;;;;;5106468;28;20513;-72
2022/10/03 02:59:49;;;;;;;10.23;5.93;;;;;;;;;;5106628;28;20580;-72
2022/10/03 03:02:25;;;;;;;12.23;7.57;;;;;;;;;;5102877;28;20131;-72
2022/10/03 03:05:12;;;;;;;12.10;7.63;;;;;;;;;;5105703;28;20448;-72
2022/10/03 03:07:51;;;;;;;11.27;6.88;;;;;;;;;;5104377;28;20035;-72
2022/10/03 03:10:29;;;;;;;14.45;8.30;;;;;;;;;;5105866;28;20499;-72
2022/10/03 03:13:06;;;;;;;14.82;7.13;;;;;;;;;;5106603;28;20288;-71
2022/10/03 03:15:45;;;;;;;16.70;8.85;;;;;;;;;;5104488;28;20085;-72
2022/10/03 03:18:19;;;;;;;14.63;7.85;;;;;;;;;;5101396;28;20094;-71
2022/10/03 03:20:53;;;;;;;9.88;6.88;;;;;;;;;;5106032;28;20137;-72
2022/10/03 03:23:40;;;;;;;15.15;8.60;;;;;;;;;;5105399;28;20142;-71
2022/10/03 03:26:07;;;;;;;15.75;9.05;;;;;;;;;;5110447;28;20097;-72
2022/10/03 03:28:54;;;;;;;19.92;9.38;;;;;;;;;;5113119;28;20536;-72
2022/10/03 03:31:35;;;;;;;12.60;6.47;;;;;;;;;;5112600;28;20035;-72
2022/10/03 03:34:12;;;;;;;14.30;7.18;;;;;;;;;;5109060;28;20047;-72
2022/10/03 03:36:59;;;;;;;11.00;5.75;;;;;;;;;;5107744;28;20132;-74
2022/10/03 03:39:39;;;;;;;14.10;7.22;;;;;;;;;;5109379;28;20039;-72
2022/10/03 03:42:26;;;;;;;14.45;8.05;;;;;;;;;;5109541;28;20035;-72
2022/10/03 03:45:06;;;;;;;9.68;6.05;;;;;;;;;;5106805;28;20101;-72
2022/10/03 03:47:45;;;;;;;9.73;6.00;;;;;;;;;;5106351;28;20051;-72
2022/10/03 03:50:22;;;;;;;12.02;6.25;;;;;;;;;;5102641;28;20040;-72
2022/10/03 03:53:09;;;;;;;17.38;9.50;;;;;;;;;;5118758;27;20040;-72
2022/10/03 03:55:47;;;;;;;10.43;6.53;;;;;;;;;;5105062;28;20055;-72
2022/10/03 03:58:25;;;;;;;16.20;9.18;;;;;;;;;;5109624;28;20049;-72
2022/10/03 04:01:05;;;;;;;12.00;6.57;;;;;;;;;;5109866;28;20040;-72
2022/10/03 04:03:45;;;;;;;15.73;7.25;;;;;;;;;;5109316;28;20074;-72
2022/10/03 04:06:33;;;;;;;7.88;4.57;;;;;;;;;;5107329;28;20040;-72
2022/10/03 04:09:07;;;;;;;8.20;5.45;;;;;;;;;;5109583;28;20035;-72
2022/10/03 04:11:38;;;;;;;14.60;7.57;;;;;;;;;;5107649;28;20130;-72
2022/10/03 04:14:27;;;;;;;5.43;4.83;;;;;;;;;;5109436;28;20071;-71
2022/10/03 04:19:54;;;;;;;11.63;5.30;;;;;;;;;;5093168;28;20044;-72
2022/10/03 04:22:28;;;;;;;8.10;5.32;;;;;;;;;;5110451;27;20047;-73
2022/10/03 04:25:16;;;;;;;12.95;7.03;;;;;;;;;;5129837;27;20544;-72
2022/10/03 04:27:55;;;;;;;10.10;6.78;;;;;;;;;;5123763;27;20163;-73
2022/10/03 04:30:34;;;;;;;9.23;4.90;;;;;;;;;;5103347;28;20044;-73
2022/10/03 04:33:05;;;;;;;11.60;6.50;;;;;;;;;;5106537;28;20608;-71
2022/10/03 04:35:42;;;;;;;9.45;6.22;;;;;;;;;;5096110;28;20200;-73
2022/10/03 04:38:20;;;;;;;15.75;7.85;;;;;;;;;;5106820;28;20044;-72
2022/10/03 04:40:53;;;;;;;8.63;5.88;;;;;;;;;;5106652;28;20044;-70
2022/10/03 04:43:40;;;;;;;12.55;6.85;;;;;;;;;;5108410;28;20491;-72
2022/10/03 04:46:07;;;;;;;7.15;5.53;;;;;;;;;;5099639;27;20085;-72
2022/10/03 04:48:43;;;;;;;9.10;5.47;;;;;;;;;;5104932;28;20111;-72
2022/10/03 04:51:23;;;;;;;11.95;6.03;;;;;;;;;;5114349;27;20148;-72
2022/10/03 04:54:10;;;;;;;8.43;5.63;;;;;;;;;;5128274;27;20084;-72
2022/10/03 04:56:40;;;;;;;12.90;7.57;;;;;;;;;;5127741;27;20047;-72
2022/10/03 04:59:26;;;;;;;13.80;7.45;;;;;;;;;;5129471;27;20047;-72
2022/10/03 05:02:04;;;;;;;15.73;8.40;;;;;;;;;;5104231;27;20071;-72
2022/10/03 05:04:44;;;;;;;12.52;6.13;;;;;;;;;;5095626;28;20082;-72
2022/10/03 05:07:14;;;;;;;18.85;7.97;;;;;;;;;;5105254;28;20460;-72
2022/10/03 05:09:48;;;;;;;14.30;8.00;;;;;;;;;;5107466;28;20058;-72
2022/10/03 05:12:19;;;;;;;15.38;8.20;;;;;;;;;;5086898;28;20040;-72
2022/10/03 05:15:02;;;;;;;21.48;8.95;;;;;;;;;;5086065;28;20131;-73
2022/10/03 05:17:41;;;;;;;6.47;4.78;;;;;;;;;;5093457;28;20100;-72
2022/10/03 05:20:24;;;;;;;12.68;8.20;;;;;;;;;;5119174;27;20525;-72
2022/10/03 05:23:10;;;;;;;7.35;4.95;;;;;;;;;;5097973;28;20247;-72
2022/10/03 05:25:47;;;;;;;11.88;7.68;;;;;;;;;;5104181;28;20606;-72
2022/10/03 05:28:41;;;;;;;22.42;10.02;;;;;;;;;;5106278;28;20043;-71
2022/10/03 05:31:27;;;;;;;12.38;7.15;;;;;;;;;;5103962;28;20046;-72
2022/10/03 05:34:16;;;;;;;13.80;6.30;;;;;;;;;;5096367;28;20039;-72
2022/10/03 05:36:59;;;;;;;8.65;6.20;;;;;;;;;;5109052;28;20132;-72
2022/10/03 05:39:30;;;;;;;11.18;7.22;;;;;;;;;;5106873;27;20084;-74
2022/10/03 05:42:06;;;;;;;8.75;6.78;;;;;;;;;;5116130;27;20044;-73
2022/10/03 05:44:57;;;;;;;5.43;4.30;;;;;;;;;;5105439;28;20048;-73
2022/10/03 05:47:48;;;;;;;11.15;6.32;;;;;;;;;;5104465;28;20080;-73
2022/10/03 05:50:32;;;;;;;12.45;6.75;;;;;;;;;;5104602;27;20096;-72
2022/10/03 05:53:12;;;;;;;10.25;5.82;;;;;;;;;;5102676;27;20436;-73
2022/10/03 05:55:53;;;;;;;11.30;7.07;;;;;;;;;;5100477;27;20089;-72
2022/10/03 05:58:24;;;;;;;15.18;7.65;;;;;;;;;;5102201;28;20046;-72
2022/10/03 06:00:57;;;;;;;14.93;8.05;;;;;;;;;;5106104;28;20096;-72
2022/10/03 06:03:44;;;;;;;14.65;7.20;;;;;;;;;;5100808;28;20040;-73
2022/10/03 06:06:34;;;;;;;11.75;6.43;;;;;;;;;;5099912;28;20051;-73
2022/10/03 06:09:01;;;;;;;7.13;5.15;;;;;;;;;;5105362;28;20043;-73
2022/10/03 06:11:41;;;;;;;15.10;8.95;;;;;;;;;;5103998;28;20042;-72
2022/10/03 06:14:24;;;;;;;10.82;5.85;;;;;;;;;;5106312;28;20108;-73
2022/10/03 06:17:10;;;;;;;10.63;6.65;;;;;;;;;;5106077;28;20043;-72
2022/10/03 06:19:56;;;;;;;12.50;6.78;;;;;;;;;;5100277;28;20490;-72
2022/10/03 06:22:32;;;;;;;11.60;6.65;;;;;;;;;;5101439;28;20115;-72
2022/10/03 06:25:12;;;;;;;9.98;4.95;;;;;;;;;;5105605;28;20097;-73
2022/10/03 06:28:01;;;;;;;11.60;7.05;;;;;;;;;;5098654;28;20036;-73
2022/10/03 06:30:37;;;;;;;14.13;7.10;;;;;;;;;;5104652;28;20411;-73
2022/10/03 06:33:07;;;;;;;15.27;8.10;;;;;;;;;;5106991;28;20055;-72
2022/10/03 06:35:41;;;;;;;11.70;7.65;;;;;;;;;;5102522;28;20260;-73
2022/10/03 06:38:24;;;;;;;12.43;6.30;;;;;;;;;;5099317;28;20508;-72
2022/10/03 06:40:58;;;;;;;11.70;7.13;;;;;;;;;;5105703;28;20138;-72
2022/10/03 06:43:44;;;;;;;16.67;6.75;;;;;;;;;;5104125;28;20222;-71
2022/10/03 06:46:30;;;;;;;8.95;5.68;;;;;;;;;;5101968;28;20051;-72
2022/10/03 06:49:18;;;;;;;5.85;5.15;;;;;;;;;;5105926;28;20062;-73
2022/10/03 06:51:58;;;;;;;20.75;9.45;;;;;;;;;;5047577;28;20068;-72
2022/10/03 06:54:44;;;;;;;14.05;8.00;;;;;;;;;;5102336;28;20039;-72
2022/10/03 06:57:12;;;;;;;12.45;6.95;;;;;;;;;;5095747;28;20454;-72
2022/10/03 06:59:39;;;;;;;12.23;6.47;;;;;;;;;;5090782;27;20127;-71
2022/10/03 07:02:25;;;;;;;9.48;6.63;;;;;;;;;;5098200;28;20085;-72
2022/10/03 07:05:13;;;;;;;15.55;6.07;;;;;;;;;;5101374;28;20138;-73
2022/10/03 07:07:52;;;;;;;15.50;6.45;;;;;;;;;;5096066;28;20655;-72
2022/10/03 07:10:35;;;;;;;9.95;6.45;;;;;;;;;;5104320;28;20481;-71
2022/10/03 07:13:05;;;;;;;11.25;6.60;;;;;;;;;;5098378;28;20057;-72
2022/10/03 07:15:32;;;;;;;10.75;7.03;;;;;;;;;;5111488;27;20047;-72
2022/10/03 07:18:23;;;;;;;10.73;5.97;;;;;;;;;;5103961;28;20466;-71
2022/10/03 07:21:20;;;;;;;9.52;5.65;;;;;;;;;;5099079;28;20091;-72
2022/10/03 07:23:47;;;;;;;13.95;7.85;;;;;;;;;;5009431;28;20051;-71
2022/10/03 07:26:14;;;;;;;12.50;7.53;;;;;;;;;;5102459;28;20459;-72
2022/10/03 07:29:01;;;;;;;12.82;6.70;;;;;;;;;;5098714;28;20054;-71
2022/10/03 07:31:32;;;;;;;16.75;7.78;;;;;;;;;;5095649;28;20130;-73
2022/10/03 07:34:18;;;;;;;15.07;7.50;;;;;;;;;;5108824;28;20063;-72
2022/10/03 07:40:03;;;;;;;9.93;6.55;;;;;;;;;;5098718;28;20045;-72
2022/10/03 07:42:49;;;;;;;9.77;5.72;;;;;;;;;;5097005;28;20436;-72
2022/10/03 07:45:33;;;;;;;8.85;5.72;;;;;;;;;;5102512;28;20040;-72
2022/10/03 07:48:12;;;;;;;8.25;5.20;;;;;;;;;;5099068;28;20040;-73
2022/10/03 07:50:58;;;;;;;9.13;5.65;;;;;;;;;;5098386;28;20107;-72
2022/10/03 07:53:28;;;;;;;8.63;5.32;;;;;;;;;;5096179;28;20139;-71
2022/10/03 07:56:11;;;;;;;9.73;6.47;;;;;;;;;;5094128;28;20082;-72
2022/10/03 07:58:48;;;;;;;11.23;5.70;;;;;;;;;;5093952;28;20039;-72
2022/10/03 08:01:18;;;;;;;5.53;3.83;;;;;;;;;;5102516;28;20533;-73
2022/10/03 08:03:52;;;;;;;9.43;4.85;;;;;;;;;;5102944;28;20392;-73
2022/10/03 08:06:38;;;;;;;7.78;4.43;;;;;;;;;;5099881;28;20047;-73
2022/10/03 08:09:17;;;;;;;8.48;4.88;;;;;;;;;;5103803;28;20042;-72
2022/10/03 08:11:57;;;;;;;9.00;4.55;;;;;;;;;;5098931;28;20326;-71
2022/10/03 08:14:46;;;;;;;6.93;5.38;;;;;;;;;;5105859;28;20039;-75
2022/10/03 08:17:23;;;;;;;13.63;6.07;;;;;;;;;;5113366;28;20043;-72
2022/10/03 08:20:23;;;;;;;8.15;5.57;;;;;;;;;;5092405;28;20521;-73
2022/10/03 08:23:06;;;;;;;8.25;4.70;;;;;;;;;;5061353;28;20543;-72
2022/10/03 08:25:53;;;;;;;9.27;4.70;;;;;;;;;;5100994;28;20039;-73
2022/10/03 08:28:24;;;;;;;6.45;3.70;;;;;;;;;;5111559;28;20284;-72
2022/10/03 08:31:04;;;;;;;7.00;3.83;;;;;;;;;;5099431;28;20052;-72
2022/10/03 08:33:37;;;;;;;6.70;4.22;;;;;;;;;;5102827;28;20106;-72
2022/10/03 08:36:14;;;;;;;9.98;4.25;;;;;;;;;;5096852;28;20047;-72
2022/10/03 08:38:58;;;;;;;6.43;4.28;;;;;;;;;;5100883;27;20414;-73
2022/10/03 08:41:59;;;;;;;8.25;3.20;;;;;;;;;;5091272;27;20503;-72
2022/10/03 08:44:34;;;;;;;6.63;4.00;;;;;;;;;;5089356;27;20233;-73
2022/10/03 08:47:15;;;;;;;8.18;4.47;;;;;;;;;;5100879;28;20459;-73
2022/10/03 08:50:02;;;;;;;4.93;3.90;;;;;;;;;;5100840;27;20040;-74
2022/10/03 08:52:50;;;;;;;6.65;3.17;;;;;;;;;;5109489;27;20040;-76
2022/10/03 08:55:18;;;;;;;5.60;3.63;;;;;;;;;;5108060;28;20051;-75
2022/10/03 08:57:58;;;;;;;7.00;3.40;;;;;;;;;;5103818;28;20131;-76
2022/10/03 09:00:46;;;;;;;7.35;3.10;;;;;;;;;;5109522;28;20501;-75
2022/10/03 09:03:19;;;;;;;6.45;2.95;;;;;;;;;;5090782;28;20617;-75
2022/10/03 09:06:25;;;;;;;6.78;3.20;;;;;;;;;;5079216;28;20048;-75
2022/10/03 09:09:01;;;;;;;4.40;2.13;;;;;;;;;;5105332;28;20571;-75
2022/10/03 09:11:47;;;;;;;5.13;3.45;;;;;;;;;;5111840;28;20333;-76
2022/10/03 09:14:30;;;;;;;3.60;2.50;;;;;;;;;;5113690;28;20104;-75
2022/10/03 09:17:09;;;;;;;7.68;2.63;;;;;;;;;;5114366;28;20043;-76
2022/10/03 09:19:51;;;;;;;3.70;2.30;;;;;;;;;;5111371;28;20473;-75
2022/10/03 09:22:38;;;;;;;4.85;2.80;;;;;;;;;;5114827;28;20549;-76
2022/10/03 09:25:06;;;;;;;4.07;2.30;;;;;;;;;;5114581;28;20050;-75
2022/10/03 09:27:36;;;;;;;4.90;2.30;;;;;;;;;;5113182;28;20054;-75
2022/10/03 09:30:04;;;;;;;6.55;2.60;;;;;;;;;;5107067;28;20043;-75
2022/10/03 09:32:50;;;;;;;5.90;2.38;;;;;;;;;;5098653;28;20040;-74
2022/10/03 09:35:18;;;;;;;5.68;2.55;;;;;;;;;;5101191;28;20130;-75
2022/10/03 09:38:04;;;;;;;5.30;2.50;;;;;;;;;;5087334;28;20044;-75
2022/10/03 09:40:50;;;;;;;4.82;2.30;;;;;;;;;;5087396;28;20545;-75
2022/10/03 09:43:38;;;;;;;3.35;2.38;;;;;;;;;;5086386;28;20121;-75
2022/10/03 09:46:32;;;;;;;4.68;2.00;;;;;;;;;;5071908;28;20345;-75
2022/10/03 09:49:10;;;;;;;2.83;1.70;;;;;;;;;;5076959;28;20044;-74
2022/10/03 09:51:48;;;;;;;3.47;1.88;;;;;;;;;;5105903;28;20047;-76
2022/10/03 09:54:25;;;;;;;5.25;2.50;;;;;;;;;;5088811;28;20055;-75
2022/10/03 09:56:53;;;;;;;5.28;1.77;;;;;;;;;;5106594;28;20162;-75
2022/10/03 09:59:20;;;;;;;3.90;1.90;;;;;;;;;;5106960;28;20172;-74
2022/10/03 10:01:51;;;;;;;4.25;2.17;;;;;;;;;;5107827;28;20125;-76
2022/10/03 10:04:57;;;;;;;7.35;2.15;;;;;;;;;;5107181;28;20134;-75
2022/10/03 10:07:27;;;;;;;5.90;1.80;;;;;;;;;;5042812;28;20045;-74
2022/10/03 10:10:00;;;;;;;3.20;2.08;;;;;;;;;;5023475;28;20050;-76
2022/10/03 10:12:31;;;;;;;5.40;2.00;;;;;;;;;;5058679;28;20421;-74
2022/10/03 10:15:08;;;;;;;4.40;1.70;;;;;;;;;;5088127;28;20119;-75
2022/10/03 10:17:36;;;;;;;6.13;2.15;;;;;;;;;;5068173;28;20080;-75
2022/10/03 10:20:03;;;;;;;2.65;1.38;;;;;;;;;;5094322;28;20035;-75
2022/10/03 10:22:57;;;;;;;5.45;1.80;;;;;;;;;;5105852;28;20059;-75
2022/10/03 10:25:31;;;;;;;3.30;1.80;;;;;;;;;;5106037;28;20107;-76
2022/10/03 10:27:58;;;;;;;4.85;2.20;;;;;;;;;;5106526;28;20055;-76
2022/10/03 10:30:38;;;;;;;5.30;1.48;;;;;;;;;;5106567;28;20043;-75
2022/10/03 10:33:27;;;;;;;5.03;1.42;;;;;;;;;;5104687;28;20808;-77
2022/10/03 10:36:13;;;;;;;3.50;2.30;;;;;;;;;;5106069;28;20506;-77
2022/10/03 10:39:11;;;;;;;6.15;1.75;;;;;;;;;;5105345;28;20067;-75
2022/10/03 10:41:49;;;;;;;3.92;1.42;;;;;;;;;;5077326;28;20049;-75
2022/10/03 10:44:36;;;;;;;4.13;2.08;;;;;;;;;;5095343;28;20035;-76
2022/10/03 10:47:12;;;;;;;2.88;1.30;;;;;;;;;;5090176;28;20054;-74
2022/10/03 10:49:56;;;;;;;4.53;1.73;;;;;;;;;;5095397;28;20100;-75
2022/10/03 10:52:42;;;;;;;3.70;1.60;;;;;;;;;;5097703;28;20048;-75
2022/10/03 10:55:28;;;;;;;4.90;1.50;;;;;;;;;;5091535;28;20050;-76
2022/10/03 10:58:08;;;;;;;3.75;1.35;;;;;;;;;;5094052;28;20039;-76
2022/10/03 11:00:54;;;;;;;3.50;1.10;;;;;;;;;;5090710;28;20067;-74
2022/10/03 11:03:41;;;;;;;3.53;1.38;;;;;;;;;;5120744;22;20072;-72
2022/10/03 11:06:17;;;;;;;5.05;1.35;;;;;;;;;;5019498;28;20120;-74
2022/10/03 11:09:03;;;;;;;2.55;1.50;;;;;;;;;;5025601;28;20065;-74
2022/10/03 11:11:31;;;;;;;1.70;1.60;;;;;;;;;;5001344;28;20069;-74
2022/10/03 11:14:31;;;;;;;3.38;1.10;;;;;;;;;;5025734;28;20049;-73
2022/10/03 11:17:12;;;;;;;3.85;1.50;;;;;;;;;;4986059;28;20041;-74
2022/10/03 11:19:40;;;;;;;2.80;1.00;;;;;;;;;;5024120;28;20041;-75
2022/10/03 11:22:17;;;;;;;4.15;1.40;;;;;;;;;;5006686;28;20037;-74
2022/10/03 11:25:04;;;;;;;3.03;1.40;;;;;;;;;;5007638;28;20048;-74
2022/10/03 11:27:56;;;;;;;5.40;1.52;;;;;;;;;;5001993;28;20567;-74
2022/10/03 11:30:27;;;;;;;4.47;1.48;;;;;;;;;;4972716;28;20509;-75
2022/10/03 11:32:54;;;;;;;2.63;1.40;;;;;;;;;;5005844;28;20045;-75
2022/10/03 11:35:41;;;;;;;4.53;1.60;;;;;;;;;;5014953;28;20332;-74
2022/10/03 11:38:18;;;;;;;2.63;1.38;;;;;;;;;;5006257;28;20045;-74
2022/10/03 11:40:53;;;;;;;3.05;1.48;;;;;;;;;;4999831;28;20103;-75
2022/10/03 11:43:32;;;;;;;2.60;1.40;;;;;;;;;;5025533;28;20512;-74
2022/10/03 11:46:02;;;;;;;2.90;1.38;;;;;;;;;;5007440;28;20068;-75
2022/10/03 11:48:38;;;;;;;2.55;1.48;;;;;;;;;;5025714;28;20095;-74
2022/10/03 11:51:14;;;;;;;4.18;1.45;;;;;;;;;;5025401;28;20053;-75
2022/10/03 11:53:48;;;;;;;2.63;1.30;;;;;;;;;;5025938;28;20049;-74
2022/10/03 11:56:25;;;;;;;4.00;1.52;;;;;;;;;;5007798;28;20092;-75
2022/10/03 11:59:12;;;;;;;4.03;1.95;;;;;;;;;;5026063;28;20132;-75
2022/10/03 12:01:59;;;;;;;3.60;1.40;;;;;;;;;;5008498;28;20459;-75
2022/10/03 12:04:31;;;;;;;2.42;1.27;;;;;;;;;;5007703;28;20428;-75
2022/10/03 12:10:07;;;;;;;3.33;1.20;;;;;;;;;;5025407;28;20045;-74
2022/10/03 12:12:54;;;;;;;2.40;1.15;;;;;;;;;;5025854;28;20693;-74
2022/10/03 12:15:25;;;;;;;5.10;1.25;;;;;;;;;;5028884;28;20103;-74
2022/10/03 12:18:05;;;;;;;1.70;1.23;;;;;;;;;;5029491;28;20716;-75
2022/10/03 12:20:37;;;;;;;2.63;1.10;;;;;;;;;;5031765;28;20041;-76
2022/10/03 12:23:24;;;;;;;4.43;1.30;;;;;;;;;;5030175;28;20050;-74
2022/10/03 12:25:52;;;;;;;1.67;1.00;;;;;;;;;;5006035;28;20050;-75
2022/10/03 12:28:25;;;;;;;3.10;1.38;;;;;;;;;;5011305;28;20580;-75
2022/10/03 12:30:55;;;;;;;1.70;1.15;;;;;;;;;;5033139;28;20064;-73
2022/10/03 12:33:35;;;;;;;2.28;0.80;;;;;;;;;;5019324;28;20045;-75
2022/10/03 12:36:14;;;;;;;1.20;0.85;;;;;;;;;;5029700;28;20057;-74
2022/10/03 12:38:48;;;;;;;3.53;1.20;;;;;;;;;;5011056;28;20424;-75
2022/10/03 12:41:24;;;;;;;2.95;1.40;;;;;;;;;;5010606;28;20045;-75
2022/10/03 12:44:04;;;;;;;3.55;1.20;;;;;;;;;;5029376;28;20041;-74
2022/10/03 12:46:34;;;;;;;3.35;1.40;;;;;;;;;;5014639;28;20128;-75
2022/10/03 12:49:04;;;;;;;2.20;1.08;;;;;;;;;;5027176;28;20037;-75
2022/10/03 12:51:41;;;;;;;3.50;1.58;;;;;;;;;;5028295;28;20041;-74
2022/10/03 12:54:12;;;;;;;1.85;0.95;;;;;;;;;;5011973;28;20057;-75
2022/10/03 12:56:44;;;;;;;2.67;0.90;;;;;;;;;;4994679;28;20064;-74
2022/10/03 12:59:11;;;;;;;;;;;;;;;;;;5029996;28;20488;-74
2022/10/03 13:01:42;;;;;;;0.80;0.80;;;;;;;;;;5024915;28;19925;-74
2022/10/03 13:04:23;;;;;;;1.55;0.90;;;;;;;;;;5006527;28;20497;-75
2022/10/03 13:07:09;;;;;;;1.60;0.95;;;;;;;;;;5006334;28;20049;-75
2022/10/03 13:09:57;;;;;;;2.05;0.80;;;;;;;;;;5025378;28;20421;-75
2022/10/03 13:12:34;;;;;;;1.92;0.80;;;;;;;;;;5025463;28;20041;-75
2022/10/03 13:15:20;;;;;;;3.05;1.00;;;;;;;;;;5007305;28;20057;-75
2022/10/03 13:17:54;;;;;;;2.85;1.00;;;;;;;;;;5009026;28;20229;-76
2022/10/03 13:20:30;;;;;;;1.95;0.90;;;;;;;;;;4991959;28;20080;-74
2022/10/03 13:23:09;;;;;;;3.25;1.40;;;;;;;;;;5028239;28;20492;-75
2022/10/03 13:25:44;;;;;;;2.30;1.10;;;;;;;;;;5006270;28;20053;-75
2022/10/03 13:28:20;;;;;;;4.40;1.05;;;;;;;;;;5003064;28;20033;-76
2022/10/03 13:31:02;;;;;;;3.65;1.00;;;;;;;;;;5028191;28;20041;-74
2022/10/03 13:33:36;;;;;;;4.90;1.00;;;;;;;;;;5018669;28;20045;-76
2022/10/03 13:36:04;;;;;;;2.08;0.90;;;;;;;;;;5024876;28;20420;-75
2022/10/03 13:38:37;;;;;;;3.55;0.90;;;;;;;;;;5021293;28;20047;-76
2022/10/03 13:41:11;;;;;;;4.25;1.20;;;;;;;;;;5011966;28;20045;-75
2022/10/03 13:43:41;;;;;;;2.22;1.20;;;;;;;;;;5007183;28;20548;-75
2022/10/03 13:46:13;;;;;;;5.80;1.17;;;;;;;;;;5019220;28;20033;-76
2022/10/03 13:48:42;;;;;;;3.25;1.00;;;;;;;;;;5002731;28;20387;-76
2022/10/03 13:51:15;;;;;;;2.70;1.63;;;;;;;;;;5005818;28;20072;-75
2022/10/03 13:54:01;;;;;;;2.75;1.05;;;;;;;;;;5021041;28;20525;-76
2022/10/03 13:56:44;;;;;;;1.98;1.17;;;;;;;;;;5021512;28;20504;-75
2022/10/03 13:59:19;;;;;;;2.83;1.27;;;;;;;;;;5027367;28;20504;-75
2022/10/03 14:02:07;;;;;;;2.05;1.30;;;;;;;;;;5023800;28;20033;-75
2022/10/03 14:04:46;;;;;;;9.57;1.38;;;;;;;;;;5015622;28;20041;-75
2022/10/03 14:07:17;;;;;;;1.55;1.00;;;;;;;;;;5024369;28;20053;-75
2022/10/03 14:09:54;;;;;;;1.75;0.93;;;;;;;;;;5025532;28;20045;-75
2022/10/03 14:12:38;;;;;;;3.75;1.20;;;;;;;;;;5022351;28;20045;-75
2022/10/03 14:15:21;;;;;;;4.32;1.25;;;;;;;;;;5001300;28;20095;-75
2022/10/03 14:17:52;;;;;;;2.85;1.20;;;;;;;;;;5002707;28;20568;-75
2022/10/03 14:20:22;;;;;;;3.38;1.10;;;;;;;;;;5025365;28;20049;-76
2022/10/03 14:22:50;;;;;;;2.22;1.00;;;;;;;;;;5026895;28;20120;-75
2022/10/03 14:25:20;;;;;;;1.20;0.93;;;;;;;;;;5007911;28;20497;-76
2022/10/03 14:28:00;;;;;;;1.70;0.90;;;;;;;;;;5026873;28;20041;-76
2022/10/03 14:30:43;;;;;;;3.38;1.00;;;;;;;;;;5027260;28;20132;-75
2022/10/03 14:33:37;;;;;;;3.35;1.02;;;;;;;;;;5009950;28;20192;-76
2022/10/03 14:36:05;;;;;;;2.35;1.63;;;;;;;;;;5025539;28;20045;-76
2022/10/03 14:41:44;;;;;;;2.72;1.40;;;;;;;;;;5026572;28;20065;-75
2022/10/03 14:44:14;;;;;;;1.27;1.10;;;;;;;;;;5026728;28;20095;-75
2022/10/03 14:46:46;;;;;;;1.75;1.13;;;;;;;;;;4992937;28;20049;-76
2022/10/03 14:49:25;;;;;;;2.05;1.17;;;;;;;;;;5022726;28;20555;-76
2022/10/03 14:52:25;;;;;;;2.15;1.00;;;;;;;;;;5023496;28;20038;-75
2022/10/03 14:54:57;;;;;;;1.75;1.42;;;;;;;;;;5032362;28;20562;-75
2022/10/03 14:57:36;;;;;;;1.77;1.00;;;;;;;;;;5012701;28;20398;-75
2022/10/03 15:00:34;;;;;;;2.22;1.13;;;;;;;;;;5032314;28;20662;-75
2022/10/03 15:03:17;;;;;;;2.08;1.23;;;;;;;;;;5029206;28;20040;-75
2022/10/03 15:05:57;;;;;;;3.38;1.27;;;;;;;;;;5027521;28;20389;-75
2022/10/03 15:08:28;;;;;;;4.25;2.45;;;;;;;;;;5046387;28;20289;-75
2022/10/03 15:10:56;;;;;;;5.20;2.60;;;;;;;;;;5026318;28;20100;-76
2022/10/03 15:13:25;;;;;;;3.92;2.58;;;;;;;;;;5019503;28;20037;-75
2022/10/03 15:15:54;;;;;;;2.60;1.63;;;;;;;;;;5003644;28;20056;-75
2022/10/03 15:18:23;;;;;;;4.65;1.58;;;;;;;;;;5025285;28;20041;-76
2022/10/03 15:20:52;;;;;;;4.45;2.00;;;;;;;;;;5009194;28;20110;-76
2022/10/03 15:23:22;;;;;;;3.70;1.73;;;;;;;;;;5026832;28;20057;-75
2022/10/03 15:25:54;;;;;;;3.65;1.92;;;;;;;;;;5024964;28;20107;-76
2022/10/03 15:28:26;;;;;;;4.13;1.70;;;;;;;;;;5026184;28;20049;-76
2022/10/03 15:30:54;;;;;;;;;;;;;;;;;;4992900;28;20206;-75
2022/10/03 15:33:41;;;;;;;2.35;1.42;;;;;;;;;;5024700;28;19947;-75
2022/10/03 15:36:09;;;;;;;2.45;1.40;;;;;;;;;;5007679;28;20111;-75
2022/10/03 15:38:41;;;;;;;2.83;1.58;;;;;;;;;;5008299;28;20041;-75
2022/10/03 15:41:09;;;;;;;3.05;1.90;;;;;;;;;;5008792;28;20131;-75
2022/10/03 15:43:48;;;;;;;3.88;1.50;;;;;;;;;;5025420;28;20297;-75
2022/10/03 15:46:23;;;;;;;2.78;1.42;;;;;;;;;;5005669;28;20041;-75
2022/10/03 15:48:54;;;;;;;3.45;1.45;;;;;;;;;;5029394;28;20555;-76
2022/10/03 15:51:25;;;;;;;3.05;1.60;;;;;;;;;;5009028;28;20405;-75
2022/10/03 15:53:57;;;;;;;3.65;1.70;;;;;;;;;;5023330;28;20095;-74
2022/10/03 15:56:42;;;;;;;2.17;1.30;;;;;;;;;;5032299;28;20048;-75
2022/10/03 15:59:16;;;;;;;3.17;1.40;;;;;;;;;;5032020;28;20041;-75
2022/10/03 16:01:46;;;;;;;4.03;1.75;;;;;;;;;;5049277;28;20051;-75